createdAt,value
2023-02-08T00:00:46.281Z,61.40
2023-02-08T00:03:13.432Z,61.40
2023-02-08T00:05:40.235Z,61.30
2023-02-08T00:08:07.655Z,61.20
2023-02-08T00:10:35.160Z,61.10
2023-02-08T00:13:02.135Z,61.10
2023-02-08T00:15:29.243Z,61.10
2023-02-08T00:17:56.054Z,61.10
2023-02-08T00:20:23.150Z,61.00
2023-02-08T00:22:51.526Z,61.00
2023-02-08T00:25:19.261Z,60.90
2023-02-08T00:27:46.025Z,60.90
2023-02-08T00:30:12.912Z,60.90
2023-02-08T00:32:39.669Z,61.00
2023-02-08T00:35:06.716Z,60.90
2023-02-08T00:37:33.762Z,60.90
2023-02-08T00:40:02.591Z,61.00
2023-02-08T00:42:30.166Z,61.00
2023-02-08T00:44:57.209Z,61.10
2023-02-08T00:47:24.920Z,61.00
2023-02-08T00:49:51.867Z,61.10
2023-02-08T00:52:19.526Z,61.00
2023-02-08T00:54:46.987Z,60.80
2023-02-08T00:57:14.354Z,60.80
2023-02-08T00:59:41.189Z,60.70
2023-02-08T01:02:10.308Z,60.70
2023-02-08T01:04:37.897Z,60.70
2023-02-08T01:07:05.812Z,60.80
2023-02-08T01:09:33.452Z,60.90
2023-02-08T01:12:00.729Z,61.00
2023-02-08T01:14:27.763Z,61.10
2023-02-08T01:16:54.652Z,61.40
2023-02-08T01:19:21.485Z,61.60
2023-02-08T01:21:49.290Z,61.50
2023-02-08T01:24:16.313Z,61.50
2023-02-08T01:26:43.100Z,61.70
2023-02-08T01:29:10.415Z,61.70
2023-02-08T01:31:41.244Z,61.70
2023-02-08T01:34:09.209Z,61.60
2023-02-08T01:36:36.999Z,61.50
2023-02-08T01:39:05.213Z,61.60
2023-02-08T01:41:35.614Z,61.60
2023-02-08T01:44:11.524Z,61.80
2023-02-08T01:46:40.709Z,61.90
2023-02-08T01:49:36.933Z,61.90
2023-02-08T01:52:19.390Z,62.00
2023-02-08T01:54:56.084Z,61.90
2023-02-08T01:57:23.407Z,61.90
2023-02-08T02:00:07.161Z,62.00
2023-02-08T02:02:41.921Z,61.90
2023-02-08T02:05:08.897Z,62.00
2023-02-08T02:07:36.139Z,62.20
2023-02-08T02:10:26.350Z,62.20
2023-02-08T02:12:55.568Z,62.40
2023-02-08T02:15:22.770Z,62.40
2023-02-08T02:17:49.892Z,62.40
2023-02-08T02:20:40.109Z,62.40
2023-02-08T02:23:13.248Z,62.60
2023-02-08T02:26:11.557Z,62.50
2023-02-08T02:29:17.059Z,62.40
2023-02-08T02:31:54.497Z,62.50
2023-02-08T02:34:28.504Z,62.50
2023-02-08T02:37:18.271Z,62.40
2023-02-08T02:39:58.818Z,62.50
2023-02-08T02:43:22.051Z,62.40
2023-02-08T02:46:09.189Z,62.50
2023-02-08T02:48:38.912Z,62.50
2023-02-08T02:51:19.041Z,62.60
2023-02-08T02:54:22.432Z,62.60
2023-02-08T02:56:52.164Z,62.60
2023-02-08T02:59:20.222Z,62.60
2023-02-08T03:01:47.392Z,62.60
2023-02-08T03:04:15.410Z,62.60
2023-02-08T03:06:57.630Z,62.50
2023-02-08T03:09:36.544Z,62.60
2023-02-08T03:12:35.063Z,62.50
2023-02-08T03:15:21.885Z,62.50
2023-02-08T03:18:05.446Z,62.50
2023-02-08T03:20:33.290Z,62.60
2023-02-08T03:23:22.402Z,62.60
2023-02-08T03:26:11.266Z,62.80
2023-02-08T03:28:52.340Z,62.90
2023-02-08T03:31:21.924Z,62.90
2023-02-08T03:33:56.569Z,63.00
2023-02-08T03:36:33.065Z,63.00
2023-02-08T03:39:03.057Z,62.90
2023-02-08T03:41:35.626Z,62.80
2023-02-08T03:44:13.980Z,62.80
2023-02-08T03:46:48.247Z,62.80
2023-02-08T03:49:22.296Z,62.80
2023-02-08T03:51:50.170Z,62.80
2023-02-08T03:54:23.759Z,62.80
2023-02-08T03:57:04.005Z,62.80
2023-02-08T03:59:35.632Z,62.70
2023-02-08T04:02:05.548Z,62.70
2023-02-08T04:04:36.924Z,62.70
2023-02-08T04:07:04.274Z,62.60
2023-02-08T04:09:31.015Z,62.60
2023-02-08T04:11:58.726Z,62.50
2023-02-08T04:14:25.501Z,62.50
2023-02-08T04:16:53.156Z,62.40
2023-02-08T04:19:19.968Z,62.40
2023-02-08T04:21:46.870Z,62.30
2023-02-08T04:24:13.721Z,62.40
2023-02-08T04:26:40.510Z,62.40
2023-02-08T04:29:07.351Z,62.40
2023-02-08T04:31:34.156Z,62.50
2023-02-08T04:34:01.095Z,62.50
2023-02-08T04:36:27.867Z,62.50
2023-02-08T04:38:54.652Z,62.60
2023-02-08T04:41:21.594Z,62.50
2023-02-08T04:43:48.369Z,62.60
2023-02-08T04:46:15.964Z,62.60
2023-02-08T04:48:42.746Z,62.60
2023-02-08T04:51:09.509Z,62.60
2023-02-08T04:53:36.300Z,62.60
2023-02-08T04:56:03.142Z,62.60
2023-02-08T04:58:30.619Z,62.60
2023-02-08T05:00:57.355Z,62.60
2023-02-08T05:03:24.129Z,62.50
2023-02-08T05:06:00.767Z,62.40
2023-02-08T05:08:27.686Z,62.40
2023-02-08T05:10:54.422Z,62.30
2023-02-08T05:13:21.285Z,62.30
2023-02-08T05:15:48.116Z,62.40
2023-02-08T05:18:14.956Z,62.30
2023-02-08T05:20:42.141Z,62.40
2023-02-08T05:23:09.059Z,62.30
2023-02-08T05:25:37.291Z,62.20
2023-02-08T05:28:04.113Z,62.20
2023-02-08T05:30:31.628Z,62.30
2023-02-08T05:32:58.440Z,62.30
2023-02-08T05:35:25.348Z,62.30
2023-02-08T05:37:52.114Z,62.30
2023-02-08T05:40:18.927Z,62.30
2023-02-08T05:42:47.637Z,62.30
2023-02-08T05:45:15.326Z,62.30
2023-02-08T05:47:42.605Z,62.30
2023-02-08T05:50:10.292Z,62.20
2023-02-08T05:52:37.049Z,62.20
2023-02-08T05:55:04.074Z,62.20
2023-02-08T05:57:33.613Z,62.20
2023-02-08T06:00:01.743Z,62.20
2023-02-08T06:02:28.671Z,62.20
2023-02-08T06:04:55.663Z,62.20
2023-02-08T06:07:22.447Z,62.10
2023-02-08T06:09:49.183Z,62.00
2023-02-08T06:12:16.701Z,62.00
2023-02-08T06:14:44.514Z,62.00
2023-02-08T06:17:11.388Z,62.00
2023-02-08T06:19:38.193Z,62.00
2023-02-08T06:22:04.924Z,61.90
2023-02-08T06:24:31.822Z,61.80
2023-02-08T06:26:58.705Z,61.80
2023-02-08T06:29:25.456Z,61.80
2023-02-08T06:31:52.351Z,61.80
2023-02-08T06:34:19.333Z,61.80
2023-02-08T06:36:46.081Z,61.80
2023-02-08T06:39:13.150Z,61.80
2023-02-08T06:41:40.085Z,61.80
2023-02-08T06:44:07.125Z,61.80
2023-02-08T06:46:33.982Z,61.80
2023-02-08T06:49:00.719Z,61.80
2023-02-08T06:51:27.979Z,61.70
2023-02-08T06:53:55.100Z,61.70
2023-02-08T06:56:21.899Z,61.60
2023-02-08T06:58:48.803Z,61.60
2023-02-08T07:01:16.032Z,61.40
2023-02-08T07:03:42.953Z,61.40
2023-02-08T07:06:14.590Z,61.40
2023-02-08T07:08:42.322Z,61.40
2023-02-08T07:11:16.066Z,61.30
2023-02-08T07:13:43.094Z,61.30
2023-02-08T07:16:10.535Z,61.30
2023-02-08T07:18:37.741Z,61.30
2023-02-08T07:21:04.936Z,61.20
2023-02-08T07:23:32.317Z,61.20
2023-02-08T07:26:04.155Z,61.20
2023-02-08T07:28:31.100Z,61.20
2023-02-08T07:30:58.123Z,61.20
2023-02-08T07:33:25.886Z,61.20
2023-02-08T07:35:52.765Z,61.20
2023-02-08T07:38:20.837Z,61.20
2023-02-08T07:40:48.117Z,61.10
2023-02-08T07:43:14.851Z,61.10
2023-02-08T07:45:51.320Z,61.10
2023-02-08T07:48:18.040Z,61.20
2023-02-08T07:50:44.759Z,61.10
2023-02-08T07:53:11.795Z,61.10
2023-02-08T07:55:38.868Z,61.10
2023-02-08T07:58:05.672Z,61.00
2023-02-08T08:00:32.835Z,60.90
2023-02-08T08:03:00.339Z,61.00
2023-02-08T08:05:27.284Z,61.00
2023-02-08T08:07:53.996Z,61.00
2023-02-08T08:10:20.704Z,61.00
2023-02-08T08:12:47.392Z,61.00
2023-02-08T08:15:14.270Z,60.90
2023-02-08T08:17:42.516Z,60.70
2023-02-08T08:20:12.123Z,60.70
2023-02-08T08:22:38.994Z,60.60
2023-02-08T08:25:06.268Z,60.30
2023-02-08T08:27:33.131Z,60.50
2023-02-08T08:30:00.068Z,60.50
2023-02-08T08:32:26.886Z,60.40
2023-02-08T08:34:53.735Z,60.20
2023-02-08T08:37:20.601Z,60.10
2023-02-08T08:39:47.373Z,60.20
2023-02-08T08:42:14.280Z,60.00
2023-02-08T08:44:41.182Z,59.80
2023-02-08T08:47:09.306Z,59.80
2023-02-08T08:49:36.150Z,59.70
2023-02-08T08:52:02.969Z,59.50
2023-02-08T08:54:29.772Z,59.40
2023-02-08T08:56:56.525Z,59.40
2023-02-08T08:59:23.295Z,59.30
2023-02-08T09:01:50.024Z,59.00
2023-02-08T09:04:16.851Z,58.90
2023-02-08T09:06:43.676Z,59.00
2023-02-08T09:09:10.416Z,58.70
2023-02-08T09:11:37.168Z,58.30
2023-02-08T09:14:05.040Z,58.30
2023-02-08T09:16:32.518Z,58.20
2023-02-08T09:19:03.989Z,57.60
2023-02-08T09:21:31.105Z,57.70
2023-02-08T09:23:58.009Z,57.50
2023-02-08T09:26:27.934Z,57.50
2023-02-08T09:28:54.991Z,57.40
2023-02-08T09:31:25.171Z,57.60
2023-02-08T09:33:54.157Z,57.50
2023-02-08T09:36:22.339Z,57.30
2023-02-08T09:38:49.921Z,57.20
2023-02-08T09:41:16.733Z,57.10
2023-02-08T09:44:17.294Z,56.90
2023-02-08T09:47:08.990Z,56.80
2023-02-08T09:49:40.639Z,56.80
2023-02-08T09:52:13.361Z,56.20
2023-02-08T09:54:48.261Z,56.30
2023-02-08T09:57:21.206Z,56.00
2023-02-08T10:00:20.404Z,55.70
2023-02-08T10:02:48.823Z,55.50
2023-02-08T10:05:21.311Z,55.40
2023-02-08T10:07:48.335Z,55.40
2023-02-08T10:10:30.912Z,55.00
2023-02-08T10:13:17.224Z,54.70
2023-02-08T10:15:57.917Z,54.70
2023-02-08T10:18:45.570Z,54.50
2023-02-08T10:21:35.110Z,54.40
2023-02-08T10:24:32.472Z,54.20
2023-02-08T10:27:13.020Z,54.10
2023-02-08T10:29:55.387Z,53.20
2023-02-08T10:32:56.580Z,53.30
2023-02-08T10:35:32.149Z,53.40
2023-02-08T10:37:59.217Z,53.10
2023-02-08T10:40:40.875Z,53.00
2023-02-08T10:43:35.407Z,52.40
2023-02-08T10:46:21.106Z,52.20
2023-02-08T10:49:05.311Z,52.10
2023-02-08T10:51:32.356Z,52.10
2023-02-08T10:53:59.123Z,51.80
2023-02-08T10:56:46.439Z,50.90
2023-02-08T10:59:29.774Z,50.70
2023-02-08T11:01:57.906Z,50.40
2023-02-08T11:04:24.883Z,50.30
2023-02-08T11:06:54.460Z,49.80
2023-02-08T11:09:25.991Z,49.80
2023-02-08T11:11:53.941Z,49.70
2023-02-08T11:14:46.191Z,49.20
2023-02-08T11:17:29.573Z,49.10
2023-02-08T11:19:58.185Z,49.00
2023-02-08T11:22:27.444Z,48.70
2023-02-08T11:25:00.577Z,48.50
2023-02-08T11:27:36.481Z,48.30
2023-02-08T11:30:15.857Z,48.00
2023-02-08T11:32:45.235Z,47.70
2023-02-08T11:35:34.137Z,47.20
2023-02-08T11:38:00.921Z,47.10
2023-02-08T11:40:42.439Z,46.70
2023-02-08T11:43:33.672Z,46.70
2023-02-08T11:46:03.105Z,46.80
2023-02-08T11:48:42.960Z,47.20
2023-02-08T11:51:13.582Z,47.30
2023-02-08T11:53:41.526Z,47.40
2023-02-08T11:56:21.932Z,47.00
2023-02-08T11:59:02.345Z,47.00
2023-02-08T12:01:35.929Z,47.00
2023-02-08T12:04:06.569Z,46.80
2023-02-08T12:06:48.295Z,46.90
2023-02-08T12:09:43.142Z,46.70
2023-02-08T12:12:31.213Z,46.30
2023-02-08T12:15:07.552Z,46.40
2023-02-08T12:17:45.188Z,46.20
2023-02-08T12:20:36.934Z,46.20
2023-02-08T12:23:34.208Z,46.00
2023-02-08T12:26:03.859Z,45.80
2023-02-08T12:29:04.635Z,45.70
2023-02-08T12:32:00.287Z,45.50
2023-02-08T12:34:55.254Z,45.40
2023-02-08T12:37:53.482Z,45.20
2023-02-08T12:40:49.850Z,45.30
2023-02-08T12:43:33.521Z,45.30
2023-02-08T12:46:15.691Z,45.10
2023-02-08T12:49:07.924Z,44.90
2023-02-08T12:52:12.639Z,44.70
2023-02-08T12:55:00.934Z,44.40
2023-02-08T12:57:31.760Z,44.20
2023-02-08T13:00:05.199Z,44.20
2023-02-08T13:02:44.704Z,43.80
2023-02-08T13:05:18.999Z,43.90
2023-02-08T13:07:50.570Z,43.90
2023-02-08T13:10:36.423Z,43.80
2023-02-08T13:13:29.325Z,43.30
2023-02-08T13:16:14.665Z,43.30
2023-02-08T13:18:55.030Z,43.30
2023-02-08T13:21:30.576Z,43.10
2023-02-08T13:23:58.516Z,42.90
2023-02-08T13:26:34.389Z,42.80
2023-02-08T13:29:03.910Z,42.60
2023-02-08T13:31:44.917Z,42.70
2023-02-08T13:34:30.657Z,42.30
2023-02-08T13:37:00.795Z,42.20
2023-02-08T13:39:41.879Z,42.20
2023-02-08T13:42:26.135Z,42.00
2023-02-08T13:44:58.197Z,41.80
2023-02-08T13:47:37.261Z,41.80
2023-02-08T13:50:09.672Z,41.40
2023-02-08T13:52:47.585Z,41.00
2023-02-08T13:55:30.853Z,41.10
2023-02-08T13:57:58.742Z,41.00
2023-02-08T14:00:34.579Z,41.00
2023-02-08T14:03:19.608Z,40.60
2023-02-08T14:05:53.291Z,40.80
2023-02-08T14:08:40.263Z,40.30
2023-02-08T14:11:31.786Z,40.40
2023-02-08T14:14:00.889Z,40.30
2023-02-08T14:16:35.985Z,40.20
2023-02-08T14:19:05.870Z,40.10
2023-02-08T14:21:41.454Z,39.90
2023-02-08T14:24:24.222Z,39.80
2023-02-08T14:26:51.765Z,39.70
2023-02-08T14:29:30.715Z,39.90
2023-02-08T14:31:57.974Z,39.70
2023-02-08T14:34:39.155Z,39.10
2023-02-08T14:37:31.430Z,39.40
2023-02-08T14:40:16.824Z,38.70
2023-02-08T14:43:00.459Z,38.80
2023-02-08T14:45:28.843Z,38.00
2023-02-08T14:47:58.929Z,38.20
2023-02-08T14:50:29.784Z,37.90
2023-02-08T14:52:59.227Z,37.90
2023-02-08T14:55:30.282Z,37.90
2023-02-08T14:58:00.846Z,37.30
2023-02-08T15:00:33.835Z,37.70
2023-02-08T15:03:04.037Z,37.40
2023-02-08T15:05:54.447Z,37.50
2023-02-08T15:08:21.475Z,37.80
2023-02-08T15:10:48.330Z,37.60
2023-02-08T15:13:24.201Z,37.30
2023-02-08T15:15:54.531Z,37.40
2023-02-08T15:18:40.424Z,37.50
2023-02-08T15:21:15.883Z,37.60
2023-02-08T15:23:42.777Z,37.60
2023-02-08T15:26:22.526Z,37.90
2023-02-08T15:28:49.420Z,38.00
2023-02-08T15:31:20.262Z,37.80
2023-02-08T15:33:47.723Z,38.00
2023-02-08T15:36:30.420Z,37.50
2023-02-08T15:39:00.562Z,36.80
2023-02-08T15:41:34.302Z,36.60
2023-02-08T15:44:29.785Z,36.30
2023-02-08T15:47:01.501Z,35.60
2023-02-08T15:49:36.586Z,35.20
2023-02-08T15:52:04.955Z,35.10
2023-02-08T15:54:31.884Z,35.20
2023-02-08T15:57:04.957Z,35.50
2023-02-08T15:59:36.360Z,35.80
2023-02-08T16:02:26.391Z,35.80
2023-02-08T16:04:53.625Z,36.10
2023-02-08T16:07:36.380Z,36.50
2023-02-08T16:10:05.875Z,36.80
2023-02-08T16:12:32.837Z,36.90
2023-02-08T16:14:59.761Z,37.10
2023-02-08T16:17:42.692Z,37.00
2023-02-08T16:20:23.036Z,37.10
2023-02-08T16:23:01.347Z,37.10
2023-02-08T16:25:49.714Z,37.00
2023-02-08T16:28:33.082Z,37.00
2023-02-08T16:31:02.724Z,36.90
2023-02-08T16:33:31.306Z,37.10
2023-02-08T16:36:01.925Z,37.20
2023-02-08T16:38:30.945Z,37.10
2023-02-08T16:41:11.993Z,37.10
2023-02-08T16:43:48.132Z,37.20
2023-02-08T16:46:21.467Z,37.10
2023-02-08T16:48:57.907Z,37.20
2023-02-08T16:51:30.779Z,36.90
2023-02-08T16:54:03.589Z,36.80
2023-02-08T16:56:30.447Z,37.00
2023-02-08T16:58:57.490Z,37.10
2023-02-08T17:01:24.562Z,36.90
2023-02-08T17:03:53.049Z,37.10
2023-02-08T17:06:30.951Z,36.90
2023-02-08T17:08:59.356Z,36.90
2023-02-08T17:11:26.721Z,37.10
2023-02-08T17:13:53.675Z,37.00
2023-02-08T17:16:22.995Z,37.20
2023-02-08T17:18:50.901Z,37.20
2023-02-08T17:21:17.980Z,37.30
2023-02-08T17:23:45.772Z,37.50
2023-02-08T17:26:28.860Z,37.70
2023-02-08T17:28:57.013Z,37.90
2023-02-08T17:31:25.859Z,38.10
2023-02-08T17:33:52.837Z,38.30
2023-02-08T17:36:19.688Z,38.50
2023-02-08T17:38:47.766Z,38.60
2023-02-08T17:41:17.675Z,38.60
2023-02-08T17:43:45.130Z,38.80
2023-02-08T17:46:21.446Z,39.00
2023-02-08T17:48:48.525Z,39.10
2023-02-08T17:51:21.258Z,39.30
2023-02-08T17:53:48.354Z,39.50
2023-02-08T17:56:21.425Z,39.70
2023-02-08T17:58:51.483Z,39.90
2023-02-08T18:01:23.564Z,40.00
2023-02-08T18:03:51.749Z,40.20
2023-02-08T18:06:19.502Z,40.40
2023-02-08T18:08:46.619Z,40.60
2023-02-08T18:11:18.854Z,40.60
2023-02-08T18:13:47.550Z,40.50
2023-02-08T18:16:19.109Z,40.70
2023-02-08T18:18:49.139Z,40.80
2023-02-08T18:21:19.340Z,40.80
2023-02-08T18:23:47.634Z,40.70
2023-02-08T18:26:17.038Z,40.70
2023-02-08T18:28:44.770Z,40.70
2023-02-08T18:31:14.981Z,40.80
2023-02-08T18:33:43.799Z,40.60
2023-02-08T18:36:12.485Z,40.60
2023-02-08T18:38:41.613Z,40.60
2023-02-08T18:41:10.472Z,40.70
2023-02-08T18:43:39.028Z,40.60
2023-02-08T18:46:10.112Z,40.70
2023-02-08T18:48:41.825Z,40.60
2023-02-08T18:51:14.691Z,40.60
2023-02-08T18:53:42.832Z,40.60
2023-02-08T18:56:11.550Z,40.50
2023-02-08T18:58:39.066Z,40.50
2023-02-08T19:01:15.797Z,40.60
2023-02-08T19:03:45.003Z,40.70
2023-02-08T19:06:22.553Z,40.70
2023-02-08T19:08:54.283Z,40.60
2023-02-08T19:11:23.840Z,40.50
2023-02-08T19:13:51.406Z,40.60
2023-02-08T19:16:21.783Z,40.60
2023-02-08T19:18:49.501Z,40.60
2023-02-08T19:21:17.617Z,40.70
2023-02-08T19:23:54.324Z,40.70
2023-02-08T19:26:26.275Z,40.70
2023-02-08T19:28:55.009Z,40.70
2023-02-08T19:31:23.271Z,40.70
2023-02-08T19:33:58.680Z,40.80
2023-02-08T19:36:34.756Z,40.80
2023-02-08T19:39:03.040Z,40.90
2023-02-08T19:41:35.793Z,40.80
2023-02-08T19:44:05.533Z,40.80
2023-02-08T19:46:34.511Z,40.90
2023-02-08T19:49:01.964Z,40.90
2023-02-08T19:51:32.087Z,40.80
2023-02-08T19:54:00.978Z,40.90
2023-02-08T19:56:33.897Z,41.10
2023-02-08T19:59:05.463Z,41.10
2023-02-08T20:01:34.327Z,41.10
2023-02-08T20:04:02.572Z,41.20
2023-02-08T20:06:33.056Z,41.20
2023-02-08T20:09:03.996Z,41.20
2023-02-08T20:11:35.959Z,41.30
2023-02-08T20:14:05.693Z,41.30
2023-02-08T20:16:33.840Z,41.30
2023-02-08T20:19:01.065Z,41.30
2023-02-08T20:21:28.243Z,41.30
2023-02-08T20:23:55.574Z,41.40
2023-02-08T20:26:25.587Z,41.50
2023-02-08T20:28:57.827Z,41.50
2023-02-08T20:31:30.188Z,41.50
2023-02-08T20:33:59.762Z,41.60
2023-02-08T20:36:32.606Z,41.50
2023-02-08T20:39:00.153Z,41.60
2023-02-08T20:41:28.216Z,41.70
2023-02-08T20:43:55.006Z,41.90
2023-02-08T20:46:24.406Z,41.80
2023-02-08T20:48:52.884Z,41.80
2023-02-08T20:51:21.560Z,41.90
2023-02-08T20:53:49.819Z,41.90
2023-02-08T20:56:19.158Z,42.00
2023-02-08T20:58:46.629Z,42.10
2023-02-08T21:01:26.048Z,42.20
2023-02-08T21:03:54.669Z,42.30
2023-02-08T21:06:26.570Z,42.40
2023-02-08T21:08:55.382Z,42.50
2023-02-08T21:11:24.955Z,42.60
2023-02-08T21:13:51.807Z,42.50
2023-02-08T21:16:18.825Z,42.60
2023-02-08T21:18:47.039Z,42.60
2023-02-08T21:21:15.397Z,42.50
2023-02-08T21:23:44.097Z,42.50
2023-02-08T21:26:15.410Z,42.60
2023-02-08T21:28:43.725Z,42.70
2023-02-08T21:31:17.052Z,43.10
2023-02-08T21:33:44.738Z,43.20
2023-02-08T21:36:14.438Z,43.30
2023-02-08T21:38:41.468Z,43.30
2023-02-08T21:41:24.385Z,43.30
2023-02-08T21:43:53.850Z,43.20
2023-02-08T21:46:21.186Z,43.10
2023-02-08T21:49:07.169Z,43.10
2023-02-08T21:51:52.856Z,43.00
2023-02-08T21:54:41.414Z,42.90
2023-02-08T21:57:12.794Z,43.00
2023-02-08T21:59:40.137Z,42.90
2023-02-08T22:02:10.599Z,42.80
2023-02-08T22:04:37.526Z,42.80
2023-02-08T22:07:04.726Z,42.80
2023-02-08T22:09:31.888Z,42.90
2023-02-08T22:11:58.921Z,43.00
2023-02-08T22:14:25.990Z,43.10
2023-02-08T22:16:52.730Z,43.10
2023-02-08T22:19:19.457Z,43.00
2023-02-08T22:21:46.464Z,43.10
2023-02-08T22:24:13.186Z,43.20
2023-02-08T22:26:40.081Z,43.30
2023-02-08T22:29:06.890Z,43.20
2023-02-08T22:31:33.743Z,43.20
2023-02-08T22:34:00.704Z,43.20
2023-02-08T22:36:27.571Z,43.30
2023-02-08T22:38:54.505Z,43.30
2023-02-08T22:41:21.332Z,43.40
2023-02-08T22:43:48.881Z,43.40
2023-02-08T22:46:15.774Z,43.40
2023-02-08T22:48:42.744Z,43.40
2023-02-08T22:51:15.049Z,43.40
2023-02-08T22:53:42.085Z,43.60
2023-02-08T22:56:09.306Z,43.70
2023-02-08T22:58:36.311Z,43.80
2023-02-08T23:01:03.603Z,43.90
2023-02-08T23:03:30.509Z,44.00
2023-02-08T23:05:57.340Z,44.10
2023-02-08T23:08:24.239Z,44.20
2023-02-08T23:11:01.674Z,44.20
2023-02-08T23:13:29.189Z,44.30
2023-02-08T23:15:56.219Z,44.40
2023-02-08T23:18:23.765Z,44.50
2023-02-08T23:20:51.051Z,44.50
2023-02-08T23:23:18.734Z,44.60
2023-02-08T23:25:45.670Z,44.80
2023-02-08T23:28:13.595Z,44.90
2023-02-08T23:30:42.512Z,45.00
2023-02-08T23:33:09.628Z,45.00
2023-02-08T23:35:40.291Z,45.20
2023-02-08T23:38:07.419Z,45.20
2023-02-08T23:40:34.300Z,45.30
2023-02-08T23:43:01.010Z,45.40
2023-02-08T23:45:28.585Z,45.50
2023-02-08T23:47:55.636Z,45.50
2023-02-08T23:50:22.404Z,45.60
2023-02-08T23:52:49.175Z,45.80
2023-02-08T23:55:15.989Z,45.90
2023-02-08T23:57:43.543Z,45.90
